sensor_id;sensor_type;location;lat;lon;timestamp;pressure;altitude;pressure_sealevel;temperature;humidity
71621;BME280;59471;42.254;23.102;2023-03-01T00:01:19;96286.97;;;6.53;82.41
71621;BME280;59471;42.254;23.102;2023-03-01T00:03:46;96291.22;;;6.54;82.75
71621;BME280;59471;42.254;23.102;2023-03-01T00:06:12;96281.78;;;6.53;82.18
71621;BME280;59471;42.254;23.102;2023-03-01T00:08:38;96273.16;;;6.53;82.55
71621;BME280;59471;42.254;23.102;2023-03-01T00:11:10;96267.28;;;6.41;82.09
71621;BME280;59471;42.254;23.102;2023-03-01T00:13:38;96272.78;;;6.38;82.69
71621;BME280;59471;42.254;23.102;2023-03-01T00:16:07;96287.03;;;6.34;83.27
71621;BME280;59471;42.254;23.102;2023-03-01T00:18:34;96291.09;;;6.46;81.89
71621;BME280;59471;42.254;23.102;2023-03-01T00:21:00;96288.91;;;6.41;82.08
71621;BME280;59471;42.254;23.102;2023-03-01T00:23:26;96291.50;;;6.51;82.22
71621;BME280;59471;42.254;23.102;2023-03-01T00:25:52;96294.94;;;6.42;82.37
71621;BME280;59471;42.254;23.102;2023-03-01T00:28:18;96293.41;;;6.49;82.04
71621;BME280;59471;42.254;23.102;2023-03-01T00:30:44;96289.03;;;6.59;80.93
71621;BME280;59471;42.254;23.102;2023-03-01T00:33:09;96286.13;;;6.62;80.34
71621;BME280;59471;42.254;23.102;2023-03-01T00:35:36;96285.28;;;6.71;80.00
71621;BME280;59471;42.254;23.102;2023-03-01T00:38:02;96284.34;;;6.63;80.94
71621;BME280;59471;42.254;23.102;2023-03-01T00:40:29;96293.97;;;6.53;80.64
71621;BME280;59471;42.254;23.102;2023-03-01T00:42:57;96302.31;;;6.56;80.76
71621;BME280;59471;42.254;23.102;2023-03-01T00:45:23;96303.91;;;6.67;80.16
71621;BME280;59471;42.254;23.102;2023-03-01T00:47:49;96296.25;;;6.65;81.44
71621;BME280;59471;42.254;23.102;2023-03-01T00:50:15;96298.97;;;6.73;80.53
71621;BME280;59471;42.254;23.102;2023-03-01T00:52:41;96296.53;;;6.62;80.94
71621;BME280;59471;42.254;23.102;2023-03-01T00:55:07;96297.59;;;6.79;80.71
71621;BME280;59471;42.254;23.102;2023-03-01T00:57:33;96307.66;;;6.92;80.60
71621;BME280;59471;42.254;23.102;2023-03-01T00:59:59;96315.88;;;6.97;79.78
71621;BME280;59471;42.254;23.102;2023-03-01T01:02:25;96308.19;;;6.95;79.94
71621;BME280;59471;42.254;23.102;2023-03-01T01:04:51;96309.31;;;6.93;79.89
71621;BME280;59471;42.254;23.102;2023-03-01T01:07:17;96303.75;;;6.78;80.55
71621;BME280;59471;42.254;23.102;2023-03-01T01:09:45;96301.84;;;6.70;80.91
71621;BME280;59471;42.254;23.102;2023-03-01T01:12:11;96305.63;;;6.86;80.24
71621;BME280;59471;42.254;23.102;2023-03-01T01:14:37;96302.78;;;6.79;80.44
71621;BME280;59471;42.254;23.102;2023-03-01T01:17:03;96299.16;;;6.62;80.71
71621;BME280;59471;42.254;23.102;2023-03-01T01:19:29;96295.03;;;6.60;81.77
71621;BME280;59471;42.254;23.102;2023-03-01T01:21:54;96298.72;;;6.67;81.08
71621;BME280;59471;42.254;23.102;2023-03-01T01:24:20;96297.63;;;6.69;80.84
71621;BME280;59471;42.254;23.102;2023-03-01T01:26:46;96291.56;;;6.79;80.02
71621;BME280;59471;42.254;23.102;2023-03-01T01:29:12;96292.09;;;6.82;78.50
71621;BME280;59471;42.254;23.102;2023-03-01T01:31:39;96281.63;;;6.92;78.06
71621;BME280;59471;42.254;23.102;2023-03-01T01:34:07;96281.81;;;6.81;80.11
71621;BME280;59471;42.254;23.102;2023-03-01T01:36:35;96275.03;;;6.60;80.93
71621;BME280;59471;42.254;23.102;2023-03-01T01:39:00;96270.84;;;6.49;82.62
71621;BME280;59471;42.254;23.102;2023-03-01T01:41:28;96266.25;;;6.61;83.58
71621;BME280;59471;42.254;23.102;2023-03-01T01:46:58;96260.03;;;6.82;83.90
71621;BME280;59471;42.254;23.102;2023-03-01T01:52:24;96248.25;;;6.50;85.38
71621;BME280;59471;42.254;23.102;2023-03-01T01:55:00;96242.63;;;6.45;85.38
71621;BME280;59471;42.254;23.102;2023-03-01T01:57:31;96244.09;;;6.57;85.44
71621;BME280;59471;42.254;23.102;2023-03-01T02:00:12;96236.06;;;6.41;85.79
71621;BME280;59471;42.254;23.102;2023-03-01T02:02:50;96232.53;;;6.32;85.97
71621;BME280;59471;42.254;23.102;2023-03-01T02:05:28;96229.50;;;6.37;86.25
71621;BME280;59471;42.254;23.102;2023-03-01T02:08:00;96230.09;;;6.11;85.89
71621;BME280;59471;42.254;23.102;2023-03-01T02:10:27;96230.38;;;6.08;86.21
71621;BME280;59471;42.254;23.102;2023-03-01T02:12:54;96221.13;;;6.06;86.58
71621;BME280;59471;42.254;23.102;2023-03-01T02:15:22;96227.41;;;6.03;85.48
71621;BME280;59471;42.254;23.102;2023-03-01T02:17:48;96222.06;;;5.95;85.07
71621;BME280;59471;42.254;23.102;2023-03-01T02:20:35;96221.25;;;5.85;85.64
71621;BME280;59471;42.254;23.102;2023-03-01T02:23:08;96210.16;;;5.82;86.26
71621;BME280;59471;42.254;23.102;2023-03-01T02:25:36;96211.81;;;5.93;84.99
71621;BME280;59471;42.254;23.102;2023-03-01T02:30:42;96204.16;;;5.53;87.49
71621;BME280;59471;42.254;23.102;2023-03-01T02:33:28;96206.59;;;5.54;86.60
71621;BME280;59471;42.254;23.102;2023-03-01T02:35:58;96206.88;;;5.61;87.12
71621;BME280;59471;42.254;23.102;2023-03-01T02:38:26;96199.50;;;5.66;87.10
71621;BME280;59471;42.254;23.102;2023-03-01T02:40:52;96214.13;;;5.67;86.60
71621;BME280;59471;42.254;23.102;2023-03-01T02:43:20;96213.72;;;5.72;87.02
71621;BME280;59471;42.254;23.102;2023-03-01T02:45:52;96210.72;;;5.57;86.51
71621;BME280;59471;42.254;23.102;2023-03-01T02:48:23;96209.06;;;5.75;86.12
71621;BME280;59471;42.254;23.102;2023-03-01T02:56:15;96217.44;;;5.50;86.93
71621;BME280;59471;42.254;23.102;2023-03-01T02:58:41;96222.47;;;5.61;87.70
71621;BME280;59471;42.254;23.102;2023-03-01T03:01:10;96216.88;;;5.46;86.81
71621;BME280;59471;42.254;23.102;2023-03-01T03:03:36;96221.38;;;5.44;87.58
71621;BME280;59471;42.254;23.102;2023-03-01T03:06:02;96218.13;;;5.52;87.23
71621;BME280;59471;42.254;23.102;2023-03-01T03:08:27;96223.03;;;5.55;86.58
71621;BME280;59471;42.254;23.102;2023-03-01T03:10:53;96215.38;;;5.44;87.29
71621;BME280;59471;42.254;23.102;2023-03-01T03:13:18;96218.94;;;5.43;86.60
71621;BME280;59471;42.254;23.102;2023-03-01T03:15:44;96214.81;;;5.50;86.34
71621;BME280;59471;42.254;23.102;2023-03-01T03:18:13;96224.94;;;5.53;85.46
71621;BME280;59471;42.254;23.102;2023-03-01T03:20:42;96219.75;;;5.53;85.80
71621;BME280;59471;42.254;23.102;2023-03-01T03:23:08;96230.16;;;5.53;84.80
71621;BME280;59471;42.254;23.102;2023-03-01T03:25:34;96236.69;;;5.57;85.42
71621;BME280;59471;42.254;23.102;2023-03-01T03:28:03;96242.31;;;5.62;85.66
71621;BME280;59471;42.254;23.102;2023-03-01T03:30:36;96239.84;;;5.61;85.58
71621;BME280;59471;42.254;23.102;2023-03-01T03:33:04;96257.75;;;5.73;84.73
71621;BME280;59471;42.254;23.102;2023-03-01T03:35:33;96254.06;;;5.66;84.56
71621;BME280;59471;42.254;23.102;2023-03-01T03:38:05;96258.84;;;5.61;84.88
71621;BME280;59471;42.254;23.102;2023-03-01T03:40:40;96257.91;;;5.62;84.75
71621;BME280;59471;42.254;23.102;2023-03-01T03:46:05;96260.78;;;5.59;84.44
71621;BME280;59471;42.254;23.102;2023-03-01T03:48:37;96249.41;;;5.60;84.07
71621;BME280;59471;42.254;23.102;2023-03-01T03:51:04;96251.47;;;5.66;83.64
71621;BME280;59471;42.254;23.102;2023-03-01T03:53:31;96253.78;;;5.69;82.85
71621;BME280;59471;42.254;23.102;2023-03-01T03:55:57;96246.28;;;5.66;82.65
71621;BME280;59471;42.254;23.102;2023-03-01T03:58:24;96252.00;;;5.60;83.10
71621;BME280;59471;42.254;23.102;2023-03-01T04:00:53;96259.16;;;5.77;83.48
71621;BME280;59471;42.254;23.102;2023-03-01T04:03:22;96254.22;;;5.74;82.12
71621;BME280;59471;42.254;23.102;2023-03-01T04:05:49;96261.31;;;5.72;83.30
71621;BME280;59471;42.254;23.102;2023-03-01T04:08:16;96257.22;;;5.79;83.39
71621;BME280;59471;42.254;23.102;2023-03-01T04:10:47;96263.09;;;5.81;82.72
71621;BME280;59471;42.254;23.102;2023-03-01T04:13:20;96253.94;;;5.77;81.82
71621;BME280;59471;42.254;23.102;2023-03-01T04:15:51;96253.94;;;5.77;82.42
71621;BME280;59471;42.254;23.102;2023-03-01T04:18:19;96257.63;;;5.85;82.58
71621;BME280;59471;42.254;23.102;2023-03-01T04:20:46;96253.94;;;5.77;82.85
71621;BME280;59471;42.254;23.102;2023-03-01T04:23:16;96253.13;;;5.77;82.71
71621;BME280;59471;42.254;23.102;2023-03-01T04:28:24;96252.84;;;5.90;82.34
71621;BME280;59471;42.254;23.102;2023-03-01T04:30:56;96254.34;;;5.82;81.40
71621;BME280;59471;42.254;23.102;2023-03-01T04:33:24;96251.63;;;5.74;81.82
71621;BME280;59471;42.254;23.102;2023-03-01T04:35:50;96257.47;;;5.76;82.46
71621;BME280;59471;42.254;23.102;2023-03-01T04:38:19;96255.56;;;5.78;82.74
71621;BME280;59471;42.254;23.102;2023-03-01T04:40:46;96263.09;;;5.91;82.10
71621;BME280;59471;42.254;23.102;2023-03-01T04:43:13;96268.44;;;5.90;81.45
71621;BME280;59471;42.254;23.102;2023-03-01T04:45:39;96261.19;;;5.84;81.59
71621;BME280;59471;42.254;23.102;2023-03-01T04:48:05;96261.31;;;5.92;82.40
71621;BME280;59471;42.254;23.102;2023-03-01T04:50:31;96259.16;;;5.97;82.35
71621;BME280;59471;42.254;23.102;2023-03-01T04:52:56;96268.44;;;5.90;82.36
71621;BME280;59471;42.254;23.102;2023-03-01T04:55:26;96269.25;;;5.80;81.51
71621;BME280;59471;42.254;23.102;2023-03-01T04:57:52;96265.81;;;5.70;82.11
71621;BME280;59471;42.254;23.102;2023-03-01T05:00:19;96259.41;;;5.65;81.77
71621;BME280;59471;42.254;23.102;2023-03-01T05:02:56;96246.81;;;5.60;82.06
71621;BME280;59471;42.254;23.102;2023-03-01T05:05:35;96253.53;;;5.53;82.96
71621;BME280;59471;42.254;23.102;2023-03-01T05:08:05;96253.38;;;5.64;82.22
71621;BME280;59471;42.254;23.102;2023-03-01T05:10:34;96256.13;;;5.72;82.81
71621;BME280;59471;42.254;23.102;2023-03-01T05:13:01;96261.44;;;5.61;81.74
71621;BME280;59471;42.254;23.102;2023-03-01T05:15:29;96257.75;;;5.54;82.22
71621;BME280;59471;42.254;23.102;2023-03-01T05:17:57;96257.75;;;5.54;82.57
71621;BME280;59471;42.254;23.102;2023-03-01T05:20:25;96267.16;;;5.45;81.46
71621;BME280;59471;42.254;23.102;2023-03-01T05:22:55;96265.97;;;5.40;82.86
71621;BME280;59471;42.254;23.102;2023-03-01T05:25:22;96268.38;;;5.31;83.26
71621;BME280;59471;42.254;23.102;2023-03-01T05:27:48;96266.06;;;5.38;83.20
71621;BME280;59471;42.254;23.102;2023-03-01T05:30:14;96268.00;;;5.36;83.62
71621;BME280;59471;42.254;23.102;2023-03-01T05:32:44;96281.00;;;5.36;83.45
71621;BME280;59471;42.254;23.102;2023-03-01T05:35:13;96280.31;;;5.44;82.20
71621;BME280;59471;42.254;23.102;2023-03-01T05:37:44;96285.06;;;5.39;82.49
71621;BME280;59471;42.254;23.102;2023-03-01T05:40:13;96279.94;;;5.58;82.02
71621;BME280;59471;42.254;23.102;2023-03-01T05:42:47;96283.16;;;5.41;82.92
71621;BME280;59471;42.254;23.102;2023-03-01T05:45:17;96297.13;;;5.40;82.60
71621;BME280;59471;42.254;23.102;2023-03-01T05:47:45;96289.34;;;5.40;81.99
71621;BME280;59471;42.254;23.102;2023-03-01T05:50:23;96300.41;;;5.51;81.99
71621;BME280;59471;42.254;23.102;2023-03-01T05:52:52;96306.19;;;5.55;81.24
71621;BME280;59471;42.254;23.102;2023-03-01T05:55:22;96304.50;;;5.54;81.45
71621;BME280;59471;42.254;23.102;2023-03-01T05:57:48;96307.13;;;5.54;81.58
71621;BME280;59471;42.254;23.102;2023-03-01T06:00:16;96306.97;;;5.46;81.09
71621;BME280;59471;42.254;23.102;2023-03-01T06:02:43;96314.34;;;5.50;80.97
71621;BME280;59471;42.254;23.102;2023-03-01T06:05:10;96318.75;;;5.50;80.27
71621;BME280;59471;42.254;23.102;2023-03-01T06:07:37;96318.19;;;5.56;80.89
71621;BME280;59471;42.254;23.102;2023-03-01T06:10:04;96317.66;;;5.52;80.64
71621;BME280;59471;42.254;23.102;2023-03-01T06:12:31;96321.19;;;5.51;80.07
71621;BME280;59471;42.254;23.102;2023-03-01T06:14:58;96321.72;;;5.45;81.13
71621;BME280;59471;42.254;23.102;2023-03-01T06:17:24;96328.59;;;5.56;79.66
71621;BME280;59471;42.254;23.102;2023-03-01T06:19:50;96334.50;;;5.58;80.22
71621;BME280;59471;42.254;23.102;2023-03-01T06:22:15;96334.19;;;5.61;79.87
71621;BME280;59471;42.254;23.102;2023-03-01T06:24:41;96343.13;;;5.68;80.03
71621;BME280;59471;42.254;23.102;2023-03-01T06:27:06;96338.19;;;5.65;79.69
71621;BME280;59471;42.254;23.102;2023-03-01T06:29:32;96334.09;;;5.72;81.09
71621;BME280;59471;42.254;23.102;2023-03-01T06:31:57;96338.03;;;5.76;79.35
71621;BME280;59471;42.254;23.102;2023-03-01T06:34:23;96338.75;;;5.78;79.56
71621;BME280;59471;42.254;23.102;2023-03-01T06:36:49;96331.09;;;5.87;78.95
71621;BME280;59471;42.254;23.102;2023-03-01T06:39:14;96346.28;;;5.91;79.19
71621;BME280;59471;42.254;23.102;2023-03-01T06:41:41;96337.38;;;5.84;78.77
71621;BME280;59471;42.254;23.102;2023-03-01T06:44:07;96341.78;;;5.84;77.71
71621;BME280;59471;42.254;23.102;2023-03-01T06:46:32;96348.50;;;5.96;78.52
71621;BME280;59471;42.254;23.102;2023-03-01T06:48:58;96348.38;;;6.07;77.65
71621;BME280;59471;42.254;23.102;2023-03-01T06:51:23;96344.50;;;5.92;78.74
71621;BME280;59471;42.254;23.102;2023-03-01T06:53:49;96354.38;;;5.98;77.56
71621;BME280;59471;42.254;23.102;2023-03-01T06:56:15;96347.25;;;5.90;78.01
71621;BME280;59471;42.254;23.102;2023-03-01T06:58:40;96348.06;;;5.91;78.73
71621;BME280;59471;42.254;23.102;2023-03-01T07:01:07;96344.94;;;5.97;77.15
71621;BME280;59471;42.254;23.102;2023-03-01T07:03:33;96350.00;;;6.08;78.13
71621;BME280;59471;42.254;23.102;2023-03-01T07:05:59;96343.72;;;6.11;77.37
71621;BME280;59471;42.254;23.102;2023-03-01T07:08:25;96347.41;;;6.08;77.48
71621;BME280;59471;42.254;23.102;2023-03-01T07:10:57;96346.56;;;6.17;76.41
71621;BME280;59471;42.254;23.102;2023-03-01T07:13:23;96331.94;;;6.07;76.36
71621;BME280;59471;42.254;23.102;2023-03-01T07:15:49;96337.84;;;6.18;77.36
71621;BME280;59471;42.254;23.102;2023-03-01T07:18:15;96339.31;;;6.11;76.54
71621;BME280;59471;42.254;23.102;2023-03-01T07:20:40;96334.66;;;6.05;77.80
71621;BME280;59471;42.254;23.102;2023-03-01T07:23:06;96328.25;;;6.09;77.36
71621;BME280;59471;42.254;23.102;2023-03-01T07:25:32;96336.06;;;6.19;77.56
71621;BME280;59471;42.254;23.102;2023-03-01T07:27:58;96326.47;;;6.19;77.11
71621;BME280;59471;42.254;23.102;2023-03-01T07:30:25;96326.47;;;6.19;77.60
71621;BME280;59471;42.254;23.102;2023-03-01T07:32:52;96321.25;;;6.19;76.77
71621;BME280;59471;42.254;23.102;2023-03-01T07:35:18;96333.97;;;6.32;76.73
71621;BME280;59471;42.254;23.102;2023-03-01T07:37:44;96330.56;;;6.32;76.02
71621;BME280;59471;42.254;23.102;2023-03-01T07:40:10;96329.03;;;6.39;76.47
71621;BME280;59471;42.254;23.102;2023-03-01T07:42:36;96324.38;;;6.33;75.91
71621;BME280;59471;42.254;23.102;2023-03-01T07:45:03;96329.72;;;6.41;75.44
71621;BME280;59471;42.254;23.102;2023-03-01T07:47:30;96328.06;;;6.40;76.31
71621;BME280;59471;42.254;23.102;2023-03-01T07:49:55;96326.13;;;6.61;76.43
71621;BME280;59471;42.254;23.102;2023-03-01T07:52:21;96323.69;;;6.50;76.29
71621;BME280;59471;42.254;23.102;2023-03-01T07:54:47;96330.25;;;6.54;76.04
71621;BME280;59471;42.254;23.102;2023-03-01T07:57:12;96326.97;;;6.52;76.04
71621;BME280;59471;42.254;23.102;2023-03-01T07:59:38;96325.59;;;6.48;75.88
71621;BME280;59471;42.254;23.102;2023-03-01T08:02:03;96325.84;;;6.64;76.66
71621;BME280;59471;42.254;23.102;2023-03-01T08:04:29;96325.03;;;6.54;76.67
71621;BME280;59471;42.254;23.102;2023-03-01T08:06:55;96329.41;;;6.63;76.71
71621;BME280;59471;42.254;23.102;2023-03-01T08:09:20;96320.63;;;6.64;75.29
71621;BME280;59471;42.254;23.102;2023-03-01T08:11:46;96325.03;;;6.64;75.81
71621;BME280;59471;42.254;23.102;2023-03-01T08:14:11;96320.03;;;6.80;75.88
71621;BME280;59471;42.254;23.102;2023-03-01T08:16:37;96328.00;;;6.79;74.95
71621;BME280;59471;42.254;23.102;2023-03-01T08:19:07;96328.84;;;6.69;75.15
71621;BME280;59471;42.254;23.102;2023-03-01T08:21:34;96322.66;;;6.70;76.11
71621;BME280;59471;42.254;23.102;2023-03-01T08:24:01;96322.31;;;6.93;75.31
71621;BME280;59471;42.254;23.102;2023-03-01T08:26:29;96319.44;;;6.96;74.97
71621;BME280;59471;42.254;23.102;2023-03-01T08:28:54;96319.72;;;6.93;74.88
71621;BME280;59471;42.254;23.102;2023-03-01T08:31:32;96322.22;;;6.85;75.27
71621;BME280;59471;42.254;23.102;2023-03-01T08:34:02;96335.16;;;7.04;74.86
71621;BME280;59471;42.254;23.102;2023-03-01T08:36:36;96330.56;;;7.26;74.99
71621;BME280;59471;42.254;23.102;2023-03-01T08:39:03;96320.44;;;7.23;74.60
71621;BME280;59471;42.254;23.102;2023-03-01T08:41:30;96308.56;;;7.38;74.32
71621;BME280;59471;42.254;23.102;2023-03-01T08:43:56;96315.75;;;7.26;74.05
71621;BME280;59471;42.254;23.102;2023-03-01T08:46:37;96303.94;;;7.32;75.01
71621;BME280;59471;42.254;23.102;2023-03-01T08:49:17;96314.38;;;7.50;74.07
71621;BME280;59471;42.254;23.102;2023-03-01T08:51:44;96304.69;;;7.42;74.76
71621;BME280;59471;42.254;23.102;2023-03-01T08:54:13;96314.09;;;7.71;73.87
71621;BME280;59471;42.254;23.102;2023-03-01T08:56:40;96308.72;;;7.54;73.57
71621;BME280;59471;42.254;23.102;2023-03-01T08:59:06;96306.69;;;7.76;73.56
71621;BME280;59471;42.254;23.102;2023-03-01T09:01:32;96317.41;;;7.73;73.07
71621;BME280;59471;42.254;23.102;2023-03-01T09:03:58;96309.19;;;7.68;73.16
71621;BME280;59471;42.254;23.102;2023-03-01T09:06:24;96306.00;;;7.92;71.98
71621;BME280;59471;42.254;23.102;2023-03-01T09:08:50;96308.88;;;8.06;71.40
71621;BME280;59471;42.254;23.102;2023-03-01T09:11:21;96310.53;;;8.07;71.49
71621;BME280;59471;42.254;23.102;2023-03-01T09:13:47;96300.16;;;8.16;71.55
71621;BME280;59471;42.254;23.102;2023-03-01T09:16:16;96315.38;;;8.20;72.29
71621;BME280;59471;42.254;23.102;2023-03-01T09:18:43;96306.94;;;8.44;71.09
71621;BME280;59471;42.254;23.102;2023-03-01T09:21:14;96294.63;;;8.54;72.73
71621;BME280;59471;42.254;23.102;2023-03-01T09:23:43;96296.28;;;8.64;70.22
71621;BME280;59471;42.254;23.102;2023-03-01T09:26:12;96288.50;;;8.72;71.12
71621;BME280;59471;42.254;23.102;2023-03-01T09:28:42;96292.38;;;8.94;69.30
71621;BME280;59471;42.254;23.102;2023-03-01T09:31:08;96284.00;;;8.82;69.90
71621;BME280;59471;42.254;23.102;2023-03-01T09:33:34;96283.69;;;8.85;68.82
71621;BME280;59471;42.254;23.102;2023-03-01T09:36:05;96272.34;;;9.02;68.19
71621;BME280;59471;42.254;23.102;2023-03-01T09:38:32;96268.72;;;8.95;68.00
71621;BME280;59471;42.254;23.102;2023-03-01T09:41:00;96271.53;;;8.68;68.54
71621;BME280;59471;42.254;23.102;2023-03-01T09:46:13;96260.72;;;8.63;68.95
71621;BME280;59471;42.254;23.102;2023-03-01T09:48:56;96269.97;;;8.57;70.09
71621;BME280;59471;42.254;23.102;2023-03-01T09:51:27;96271.13;;;8.54;70.06
71621;BME280;59471;42.254;23.102;2023-03-01T09:53:56;96263.31;;;8.63;70.07
71621;BME280;59471;42.254;23.102;2023-03-01T09:56:59;96264.44;;;8.60;71.92
71621;BME280;59471;42.254;23.102;2023-03-01T10:05:41;96271.09;;;8.80;70.96
71621;BME280;59471;42.254;23.102;2023-03-01T10:14:30;96262.41;;;8.72;71.18
71621;BME280;59471;42.254;23.102;2023-03-01T10:19:52;96269.34;;;8.89;70.51
71621;BME280;59471;42.254;23.102;2023-03-01T10:22:19;96267.44;;;8.99;68.95
71621;BME280;59471;42.254;23.102;2023-03-01T10:24:58;96265.09;;;8.88;69.00
71621;BME280;59471;42.254;23.102;2023-03-01T10:30:38;96258.78;;;8.99;68.98
71621;BME280;59471;42.254;23.102;2023-03-01T10:33:32;96257.72;;;9.18;69.61
71621;BME280;59471;42.254;23.102;2023-03-01T10:35:59;96254.59;;;9.22;68.88
71621;BME280;59471;42.254;23.102;2023-03-01T10:38:24;96256.38;;;9.14;68.08
71621;BME280;59471;42.254;23.102;2023-03-01T10:43:19;96240.19;;;9.10;69.02
71621;BME280;59471;42.254;23.102;2023-03-01T10:45:45;96244.38;;;9.37;69.19
71621;BME280;59471;42.254;23.102;2023-03-01T10:48:21;96242.72;;;9.28;68.57
71621;BME280;59471;42.254;23.102;2023-03-01T10:53:41;96243.41;;;9.46;68.16
71621;BME280;59471;42.254;23.102;2023-03-01T10:56:13;96246.38;;;9.60;67.47
71621;BME280;59471;42.254;23.102;2023-03-01T10:58:56;96236.56;;;9.54;68.33
71621;BME280;59471;42.254;23.102;2023-03-01T11:01:29;96230.69;;;9.60;69.12
71621;BME280;59471;42.254;23.102;2023-03-01T11:06:33;96231.53;;;10.01;66.61
71621;BME280;59471;42.254;23.102;2023-03-01T11:09:20;96220.06;;;9.94;67.44
71621;BME280;59471;42.254;23.102;2023-03-01T11:11:55;96215.81;;;9.93;67.20
71621;BME280;59471;42.254;23.102;2023-03-01T11:14:28;96211.41;;;9.77;67.94
71621;BME280;59471;42.254;23.102;2023-03-01T11:17:04;96211.56;;;9.75;67.46
71621;BME280;59471;42.254;23.102;2023-03-01T11:19:36;96211.22;;;10.11;67.04
71621;BME280;59471;42.254;23.102;2023-03-01T11:22:07;96193.75;;;10.28;66.69
71621;BME280;59471;42.254;23.102;2023-03-01T11:24:51;96200.94;;;10.26;65.95
71621;BME280;59471;42.254;23.102;2023-03-01T11:27:23;96195.81;;;10.49;66.87
71621;BME280;59471;42.254;23.102;2023-03-01T11:32:38;96199.28;;;10.25;63.47
71621;BME280;59471;42.254;23.102;2023-03-01T11:35:13;96193.03;;;10.51;64.78
71621;BME280;59471;42.254;23.102;2023-03-01T11:40:32;96188.00;;;10.41;64.69
71621;BME280;59471;42.254;23.102;2023-03-01T11:43:09;96187.31;;;10.47;64.97
71621;BME280;59471;42.254;23.102;2023-03-01T11:55:19;96168.13;;;10.55;65.40
71621;BME280;59471;42.254;23.102;2023-03-01T12:12:00;96166.88;;;10.18;67.43
71621;BME280;59471;42.254;23.102;2023-03-01T12:15:05;96165.91;;;10.43;64.82
71621;BME280;59471;42.254;23.102;2023-03-01T12:32:35;96184.91;;;10.13;65.83
71621;BME280;59471;42.254;23.102;2023-03-01T12:35:33;96184.41;;;9.93;67.93
71621;BME280;59471;42.254;23.102;2023-03-01T12:52:18;96165.63;;;9.81;66.90
71621;BME280;59471;42.254;23.102;2023-03-01T12:54:51;96172.97;;;10.02;67.58
71621;BME280;59471;42.254;23.102;2023-03-01T12:57:38;96161.53;;;10.03;67.90
71621;BME280;59471;42.254;23.102;2023-03-01T13:00:35;96167.22;;;10.15;66.02
71621;BME280;59471;42.254;23.102;2023-03-01T13:03:26;96157.28;;;9.86;67.28
71621;BME280;59471;42.254;23.102;2023-03-01T13:06:08;96160.56;;;9.80;67.65
71621;BME280;59471;42.254;23.102;2023-03-01T13:13:11;96162.22;;;9.81;67.69
71621;BME280;59471;42.254;23.102;2023-03-01T13:20:54;96158.75;;;9.64;68.46
71621;BME280;59471;42.254;23.102;2023-03-01T13:28:57;96149.31;;;9.71;68.96
71621;BME280;59471;42.254;23.102;2023-03-01T13:33:54;96142.75;;;9.75;66.53
71621;BME280;59471;42.254;23.102;2023-03-01T13:38:57;96145.06;;;9.62;67.46
71621;BME280;59471;42.254;23.102;2023-03-01T13:47:15;96136.88;;;9.73;66.52
71621;BME280;59471;42.254;23.102;2023-03-01T13:52:35;96131.31;;;9.76;67.69
71621;BME280;59471;42.254;23.102;2023-03-01T13:55:26;96127.03;;;9.83;67.70
71621;BME280;59471;42.254;23.102;2023-03-01T13:58:01;96125.44;;;9.66;67.93
71621;BME280;59471;42.254;23.102;2023-03-01T14:00:36;96124.13;;;9.62;68.66
71621;BME280;59471;42.254;23.102;2023-03-01T14:03:05;96125.78;;;9.46;68.69
71621;BME280;59471;42.254;23.102;2023-03-01T14:05:35;96122.00;;;9.33;68.67
71621;BME280;59471;42.254;23.102;2023-03-01T14:08:03;96123.78;;;9.32;68.86
71621;BME280;59471;42.254;23.102;2023-03-01T14:10:35;96120.69;;;9.45;68.89
71621;BME280;59471;42.254;23.102;2023-03-01T14:14:09;96120.84;;;9.60;69.53
71621;BME280;59471;42.254;23.102;2023-03-01T14:18:53;96124.13;;;9.29;68.70
71621;BME280;59471;42.254;23.102;2023-03-01T14:21:20;96113.34;;;9.32;68.78
71621;BME280;59471;42.254;23.102;2023-03-01T14:23:48;96120.88;;;9.27;69.82
71621;BME280;59471;42.254;23.102;2023-03-01T14:26:20;96129.19;;;9.31;68.93
71621;BME280;59471;42.254;23.102;2023-03-01T14:28:47;96133.91;;;9.35;69.35
71621;BME280;59471;42.254;23.102;2023-03-01T14:31:34;96128.03;;;9.74;68.15
71621;BME280;59471;42.254;23.102;2023-03-01T14:34:02;96121.34;;;9.55;68.02
71621;BME280;59471;42.254;23.102;2023-03-01T14:36:33;96122.97;;;9.32;68.32
71621;BME280;59471;42.254;23.102;2023-03-01T14:38:59;96122.00;;;9.24;70.12
71621;BME280;59471;42.254;23.102;2023-03-01T14:41:33;96121.19;;;9.24;69.72
71621;BME280;59471;42.254;23.102;2023-03-01T14:44:03;96126.56;;;9.22;69.11
71621;BME280;59471;42.254;23.102;2023-03-01T14:51:43;96140.78;;;9.36;70.10
71621;BME280;59471;42.254;23.102;2023-03-01T14:54:29;96133.59;;;9.30;69.33
71621;BME280;59471;42.254;23.102;2023-03-01T14:57:00;96135.84;;;9.00;70.71
71621;BME280;59471;42.254;23.102;2023-03-01T14:59:27;96137.13;;;9.04;70.46
71621;BME280;59471;42.254;23.102;2023-03-01T15:01:56;96142.88;;;9.08;71.27
71621;BME280;59471;42.254;23.102;2023-03-01T15:04:23;96141.72;;;9.11;70.63
71621;BME280;59471;42.254;23.102;2023-03-01T15:06:52;96134.69;;;9.03;70.60
71621;BME280;59471;42.254;23.102;2023-03-01T15:09:18;96131.25;;;8.94;70.53
71621;BME280;59471;42.254;23.102;2023-03-01T15:11:44;96116.53;;;8.85;70.98
71621;BME280;59471;42.254;23.102;2023-03-01T15:14:42;96122.09;;;8.98;71.33
71621;BME280;59471;42.254;23.102;2023-03-01T15:17:20;96114.41;;;8.80;71.46
71621;BME280;59471;42.254;23.102;2023-03-01T15:19:52;96114.81;;;8.59;71.48
71621;BME280;59471;42.254;23.102;2023-03-01T15:22:19;96115.53;;;8.35;72.96
71621;BME280;59471;42.254;23.102;2023-03-01T15:24:49;96115.44;;;8.45;72.69
71621;BME280;59471;42.254;23.102;2023-03-01T15:27:17;96112.22;;;8.51;72.67
71621;BME280;59471;42.254;23.102;2023-03-01T15:29:53;96110.16;;;8.37;72.71
71621;BME280;59471;42.254;23.102;2023-03-01T15:32:33;96104.19;;;8.19;74.37
71621;BME280;59471;42.254;23.102;2023-03-01T15:35:37;96106.09;;;8.08;74.46
71621;BME280;59471;42.254;23.102;2023-03-01T15:38:32;96095.22;;;7.87;75.12